Accueil
METAR-TAF:

METAR-TAF

Aéroports :

Aéroport de Lydd

Lydd, Angleterre

latitude: 50-57N, longitude: 000-56E, altitude: 3 m

Observation

Le bulletin a été fait il y a 38 minutes, à 11:50 UTC
Vent 11 kt de sud-ouest
Température 22°C
Humidité 60%
Pression 1019 hPa
Visibilité 10 km ou plus
Quelques nuages à une hauteur de 2500 ft

METAR: EGMD 181150Z 22011KT 9999 FEW025 22/14 Q1019

Heure: 13:28 (12:28 UTC)

Prévision

Le bulletin a été fait il y a 1 heure et 24 minutes, à 11:04 UTC
Prévision valable du 18 à 12 UTC au 18 à 21 UTC
Vent 10 kt de sud/sud-ouest
Visibilité 10 km ou plus
Nuages épars à une hauteur de 4000 ft

TAF: EGMD 181104Z 1812/1821 21010KT 9999 SCT040

Observations et prévisions météorologiques de plus de 4000 aéroports (messages METAR et TAF).

Les stations disponibles sont représentées par des disques jaunes et rouges sur la carte.

Passer la souris dessus pour voir le nom de la station.

Cliquer dessus pour voir les observations et prévisions météorologiques.

Pour changer de carte: cliquez sur les boutons verts avec une croix noire pour zoomer, sur le bouton vert avec un tiret pour effectuer un zoom arrière, ou sur les flèches vertes pour les cartes adjacentes.


METAR-TAF: